createdAt,value
2023-04-16T00:00:55.693Z,9.10
2023-04-16T00:03:22.809Z,9.09
2023-04-16T00:05:49.494Z,9.09
2023-04-16T00:08:15.902Z,9.05
2023-04-16T00:10:42.323Z,9.09
2023-04-16T00:13:08.685Z,9.09
2023-04-16T00:15:35.039Z,9.21
2023-04-16T00:18:01.474Z,9.26
2023-04-16T00:20:27.868Z,9.30
2023-04-16T00:22:54.381Z,9.30
2023-04-16T00:25:20.820Z,9.22
2023-04-16T00:27:47.175Z,9.37
2023-04-16T00:30:13.564Z,9.48
2023-04-16T00:32:39.853Z,9.41
2023-04-16T00:35:06.489Z,9.41
2023-04-16T00:37:32.803Z,9.56
2023-04-16T00:39:59.096Z,9.47
2023-04-16T00:42:25.595Z,9.37
2023-04-16T00:44:52.511Z,9.31
2023-04-16T00:47:19.950Z,9.38
2023-04-16T00:49:46.449Z,9.39
2023-04-16T00:52:13.005Z,9.45
2023-04-16T00:54:39.764Z,9.54
2023-04-16T00:57:06.204Z,9.42
2023-04-16T00:59:32.527Z,9.34
2023-04-16T01:01:58.907Z,9.34
2023-04-16T01:04:26.133Z,9.39
2023-04-16T01:06:53.852Z,9.38
2023-04-16T01:09:20.305Z,9.38
2023-04-16T01:11:46.587Z,9.35
2023-04-16T01:14:12.925Z,9.33
2023-04-16T01:16:39.325Z,9.25
2023-04-16T01:19:05.707Z,9.32
2023-04-16T01:21:32.503Z,9.26
2023-04-16T01:24:02.107Z,9.29
2023-04-16T01:26:28.433Z,9.27
2023-04-16T01:28:54.864Z,9.31
2023-04-16T01:31:21.217Z,9.31
2023-04-16T01:33:47.647Z,9.27
2023-04-16T01:36:14.048Z,9.27
2023-04-16T01:38:40.388Z,9.27
2023-04-16T01:41:06.681Z,9.15
2023-04-16T01:43:32.988Z,9.18
2023-04-16T01:46:31.887Z,9.17
2023-04-16T01:49:05.080Z,9.15
2023-04-16T01:51:32.290Z,9.13
2023-04-16T01:53:58.584Z,9.16
2023-04-16T01:56:25.482Z,9.22
2023-04-16T01:58:52.594Z,9.17
2023-04-16T02:01:19.272Z,9.22
2023-04-16T02:03:46.249Z,9.28
2023-04-16T02:06:12.785Z,9.34
2023-04-16T02:08:39.316Z,9.35
2023-04-16T02:11:05.851Z,9.28
2023-04-16T02:13:32.329Z,9.34
2023-04-16T02:15:58.710Z,9.45
2023-04-16T02:18:25.284Z,9.51
2023-04-16T02:20:52.377Z,9.53
2023-04-16T02:23:18.671Z,9.48
2023-04-16T02:25:46.039Z,9.27
2023-04-16T02:28:13.432Z,9.19
2023-04-16T02:30:40.717Z,8.96
2023-04-16T02:33:07.959Z,8.83
2023-04-16T02:35:34.834Z,8.91
2023-04-16T02:38:01.796Z,8.97
2023-04-16T02:40:28.461Z,9.03
2023-04-16T02:42:54.852Z,9.16
2023-04-16T02:45:21.374Z,9.15
2023-04-16T02:47:49.393Z,9.15
2023-04-16T02:50:16.013Z,9.14
2023-04-16T02:52:42.443Z,9.13
2023-04-16T02:55:09.268Z,9.12
2023-04-16T02:57:35.688Z,9.21
2023-04-16T03:00:02.031Z,9.17
2023-04-16T03:02:28.756Z,9.15
2023-04-16T03:04:55.573Z,9.15
2023-04-16T03:07:22.523Z,9.06
2023-04-16T03:09:48.915Z,9.11
2023-04-16T03:12:15.295Z,9.09
2023-04-16T03:14:41.697Z,9.11
2023-04-16T03:17:08.014Z,9.11
2023-04-16T03:19:34.436Z,9.15
2023-04-16T03:22:00.780Z,9.17
2023-04-16T03:24:28.143Z,9.15
2023-04-16T03:26:54.492Z,9.22
2023-04-16T03:29:20.796Z,9.11
2023-04-16T03:31:47.104Z,9.04
2023-04-16T03:34:13.461Z,8.88
2023-04-16T03:36:39.754Z,8.90
2023-04-16T03:39:06.187Z,8.92
2023-04-16T03:41:33.047Z,8.98
2023-04-16T03:43:59.389Z,9.00
2023-04-16T03:46:25.856Z,8.97
2023-04-16T03:48:52.555Z,8.97
2023-04-16T03:51:18.869Z,9.03
2023-04-16T03:53:45.285Z,8.97
2023-04-16T03:56:11.631Z,8.89
2023-04-16T03:58:37.950Z,8.71
2023-04-16T04:01:04.420Z,8.66
2023-04-16T04:03:31.018Z,8.77
2023-04-16T04:05:57.509Z,8.82
2023-04-16T04:08:23.904Z,8.97
2023-04-16T04:10:51.135Z,8.92
2023-04-16T04:13:17.432Z,8.92
2023-04-16T04:15:44.121Z,8.85
2023-04-16T04:18:10.645Z,8.77
2023-04-16T04:20:41.142Z,8.84
2023-04-16T04:23:07.505Z,8.80
2023-04-16T04:25:33.894Z,8.84
2023-04-16T04:28:00.267Z,8.71
2023-04-16T04:30:26.872Z,8.62
2023-04-16T04:32:53.715Z,8.30
2023-04-16T04:35:20.376Z,8.39
2023-04-16T04:37:46.788Z,8.56
2023-04-16T04:40:13.116Z,8.65
2023-04-16T04:42:39.502Z,8.74
2023-04-16T04:45:06.154Z,8.58
2023-04-16T04:47:32.484Z,8.62
2023-04-16T04:49:59.179Z,8.85
2023-04-16T04:52:25.804Z,8.99
2023-04-16T04:54:53.378Z,9.03
2023-04-16T04:57:19.763Z,8.96
2023-04-16T04:59:46.099Z,8.91
2023-04-16T05:02:12.483Z,8.94
2023-04-16T05:04:39.036Z,9.09
2023-04-16T05:07:06.599Z,9.03
2023-04-16T05:09:32.988Z,8.96
2023-04-16T05:11:59.415Z,8.96
2023-04-16T05:14:25.840Z,8.96
2023-04-16T05:16:52.563Z,9.02
2023-04-16T05:19:18.912Z,9.07
2023-04-16T05:21:45.228Z,9.03
2023-04-16T05:24:13.054Z,9.06
2023-04-16T05:26:41.148Z,8.99
2023-04-16T05:29:07.477Z,8.90
2023-04-16T05:31:34.026Z,8.80
2023-04-16T05:34:00.357Z,8.80
2023-04-16T05:36:26.678Z,8.92
2023-04-16T05:38:54.058Z,8.98
2023-04-16T05:41:20.371Z,9.03
2023-04-16T05:43:46.704Z,9.09
2023-04-16T05:46:13.179Z,9.08
2023-04-16T05:48:39.613Z,9.01
2023-04-16T05:51:06.133Z,8.95
2023-04-16T05:53:32.507Z,8.92
2023-04-16T05:55:58.827Z,8.97
2023-04-16T05:58:25.301Z,9.04
2023-04-16T06:00:52.518Z,9.09
2023-04-16T06:03:18.922Z,9.08
2023-04-16T06:05:45.645Z,9.14
2023-04-16T06:08:12.047Z,9.20
2023-04-16T06:10:38.407Z,9.17
2023-04-16T06:13:04.986Z,9.19
2023-04-16T06:15:31.914Z,9.24
2023-04-16T06:18:00.706Z,9.24
2023-04-16T06:20:27.457Z,9.26
2023-04-16T06:22:53.826Z,9.19
2023-04-16T06:25:20.263Z,9.21
2023-04-16T06:27:46.683Z,9.06
2023-04-16T06:30:13.739Z,9.04
2023-04-16T06:32:40.128Z,9.03
2023-04-16T06:35:08.213Z,9.07
2023-04-16T06:37:35.087Z,9.20
2023-04-16T06:40:01.594Z,9.21
2023-04-16T06:42:27.949Z,9.25
2023-04-16T06:44:54.258Z,9.36
2023-04-16T06:47:21.215Z,9.46
2023-04-16T06:49:48.768Z,9.51
2023-04-16T06:52:15.358Z,9.59
2023-04-16T06:54:41.731Z,9.39
2023-04-16T06:57:08.071Z,9.28
2023-04-16T06:59:34.412Z,9.34
2023-04-16T07:02:01.288Z,9.35
2023-04-16T07:04:27.767Z,9.37
2023-04-16T07:06:54.340Z,9.25
2023-04-16T07:09:20.656Z,9.18
2023-04-16T07:11:47.048Z,9.14
2023-04-16T07:14:13.399Z,9.15
2023-04-16T07:16:40.653Z,9.22
2023-04-16T07:19:07.159Z,9.20
2023-04-16T07:21:33.556Z,8.92
2023-04-16T07:23:59.894Z,9.02
2023-04-16T07:26:26.464Z,9.15
2023-04-16T07:28:53.492Z,9.14
2023-04-16T07:31:19.955Z,9.22
2023-04-16T07:33:46.404Z,9.20
2023-04-16T07:36:12.809Z,9.13
2023-04-16T07:38:39.176Z,9.15
2023-04-16T07:41:05.749Z,9.17
2023-04-16T07:43:32.070Z,9.19
2023-04-16T07:45:58.448Z,9.22
2023-04-16T07:48:24.960Z,9.19
2023-04-16T07:50:52.673Z,9.29
2023-04-16T07:53:19.026Z,9.36
2023-04-16T07:55:45.571Z,9.38
2023-04-16T07:58:11.884Z,9.36
2023-04-16T08:00:39.455Z,9.33
2023-04-16T08:03:06.402Z,9.37
2023-04-16T08:05:32.871Z,9.26
2023-04-16T08:07:59.270Z,9.25
2023-04-16T08:10:25.632Z,9.32
2023-04-16T08:12:54.370Z,9.32
2023-04-16T08:15:21.023Z,9.37
2023-04-16T08:17:47.413Z,9.50
2023-04-16T08:20:16.962Z,9.44
2023-04-16T08:22:45.753Z,9.40
2023-04-16T08:25:12.241Z,9.52
2023-04-16T08:27:38.632Z,9.60
2023-04-16T08:30:05.515Z,9.69
2023-04-16T08:32:32.002Z,9.71
2023-04-16T08:34:58.335Z,9.77
2023-04-16T08:37:25.178Z,9.93
2023-04-16T08:39:51.588Z,9.98
2023-04-16T08:42:29.913Z,9.86
2023-04-16T08:45:03.111Z,9.78
2023-04-16T08:47:31.583Z,9.66
2023-04-16T08:49:58.882Z,9.60
2023-04-16T08:52:26.030Z,9.54
2023-04-16T08:55:04.547Z,9.64
2023-04-16T08:57:34.764Z,9.61
2023-04-16T09:00:01.406Z,9.73
2023-04-16T09:02:28.501Z,9.86
2023-04-16T09:04:56.449Z,9.98
2023-04-16T09:07:24.097Z,10.06
2023-04-16T09:09:53.212Z,10.07
2023-04-16T09:12:20.018Z,10.03
2023-04-16T09:14:49.708Z,9.98
2023-04-16T09:17:16.796Z,10.16
2023-04-16T09:19:43.540Z,10.26
2023-04-16T09:22:09.937Z,10.23
2023-04-16T09:24:38.393Z,10.22
2023-04-16T09:27:05.075Z,10.35
2023-04-16T09:29:37.738Z,10.46
2023-04-16T09:32:05.824Z,10.51
2023-04-16T09:34:32.999Z,10.51
2023-04-16T09:37:26.496Z,10.55
2023-04-16T09:39:55.091Z,10.58
2023-04-16T09:42:23.838Z,10.61
2023-04-16T09:44:50.483Z,10.69
2023-04-16T09:47:17.055Z,10.61
2023-04-16T09:49:43.952Z,10.63
2023-04-16T09:52:17.178Z,10.60
2023-04-16T09:54:50.699Z,10.67
2023-04-16T09:57:24.526Z,10.76
2023-04-16T09:59:57.286Z,10.80
2023-04-16T10:02:27.794Z,10.92
2023-04-16T10:04:54.823Z,10.99
2023-04-16T10:07:22.577Z,11.07
2023-04-16T10:09:49.687Z,11.25
2023-04-16T10:12:16.222Z,11.35
2023-04-16T10:14:42.713Z,11.38
2023-04-16T10:17:09.552Z,11.12
2023-04-16T10:19:36.358Z,11.02
2023-04-16T10:22:03.245Z,10.96
2023-04-16T10:24:30.246Z,10.88
2023-04-16T10:26:57.076Z,10.95
2023-04-16T10:29:25.346Z,11.00
2023-04-16T10:31:52.487Z,11.01
2023-04-16T10:34:19.592Z,11.10
2023-04-16T10:36:48.281Z,11.06
2023-04-16T10:39:18.089Z,11.08
2023-04-16T10:41:44.602Z,11.11
2023-04-16T10:44:11.073Z,11.14
2023-04-16T10:46:41.494Z,11.22
2023-04-16T10:49:15.742Z,11.17
2023-04-16T10:51:42.787Z,11.26
2023-04-16T10:54:09.255Z,11.19
2023-04-16T10:56:36.585Z,11.01
2023-04-16T10:59:10.918Z,10.95
2023-04-16T11:01:40.978Z,10.92
2023-04-16T11:04:19.732Z,10.86
2023-04-16T11:07:05.109Z,10.73
2023-04-16T11:09:52.530Z,10.70
2023-04-16T11:12:19.962Z,10.75
2023-04-16T11:14:47.698Z,10.82
2023-04-16T11:17:14.087Z,10.70
2023-04-16T11:19:42.029Z,10.73
2023-04-16T11:22:08.374Z,10.79
2023-04-16T11:24:34.744Z,10.97
2023-04-16T11:27:03.029Z,10.92
2023-04-16T11:29:29.349Z,10.97
2023-04-16T11:31:55.791Z,10.93
2023-04-16T11:34:22.441Z,10.95
2023-04-16T11:36:50.084Z,10.92
2023-04-16T11:39:16.793Z,10.86
2023-04-16T11:41:49.454Z,10.79
2023-04-16T11:44:22.749Z,10.75
2023-04-16T11:46:49.854Z,10.81
2023-04-16T11:49:17.563Z,10.90
2023-04-16T11:51:44.832Z,11.01
2023-04-16T11:54:18.390Z,10.83
2023-04-16T11:56:46.623Z,10.71
2023-04-16T11:59:14.428Z,10.74
2023-04-16T12:01:41.855Z,10.92
2023-04-16T12:04:08.935Z,11.01
2023-04-16T12:06:35.656Z,11.10
2023-04-16T12:09:22.865Z,11.12
2023-04-16T12:11:49.578Z,11.05
2023-04-16T12:14:15.940Z,11.08
2023-04-16T12:16:42.334Z,11.12
2023-04-16T12:19:11.292Z,11.25
2023-04-16T12:21:41.306Z,11.35
2023-04-16T12:24:08.486Z,11.10
2023-04-16T12:26:42.415Z,11.11
2023-04-16T12:29:19.433Z,11.09
2023-04-16T12:31:46.371Z,11.08
2023-04-16T12:34:15.015Z,11.13
2023-04-16T12:36:42.061Z,11.02
2023-04-16T12:39:09.777Z,10.99
2023-04-16T12:41:37.272Z,10.97
2023-04-16T12:44:04.415Z,10.94
2023-04-16T12:46:30.829Z,10.97
2023-04-16T12:48:57.643Z,11.07
2023-04-16T12:51:24.452Z,11.17
2023-04-16T12:53:50.986Z,11.03
2023-04-16T12:56:17.323Z,10.99
2023-04-16T12:58:43.647Z,11.03
2023-04-16T13:01:09.954Z,11.01
2023-04-16T13:03:37.214Z,11.17
2023-04-16T13:06:03.885Z,11.23
2023-04-16T13:08:30.643Z,11.20
2023-04-16T13:10:56.939Z,11.16
2023-04-16T13:13:24.024Z,11.17
2023-04-16T13:15:50.895Z,11.18
2023-04-16T13:18:19.308Z,11.11
2023-04-16T13:20:45.759Z,11.18
2023-04-16T13:23:12.416Z,11.25
2023-04-16T13:25:38.793Z,11.32
2023-04-16T13:28:05.841Z,11.24
2023-04-16T13:30:33.359Z,11.32
2023-04-16T13:33:00.052Z,11.36
2023-04-16T13:35:27.236Z,11.51
2023-04-16T13:37:53.980Z,11.63
2023-04-16T13:40:20.361Z,11.62
2023-04-16T13:42:46.806Z,11.58
2023-04-16T13:45:13.105Z,11.60
2023-04-16T13:47:43.115Z,11.56
2023-04-16T13:50:10.038Z,11.58
2023-04-16T13:52:36.517Z,11.58
2023-04-16T13:55:03.227Z,11.61
2023-04-16T13:57:29.781Z,11.69
2023-04-16T13:59:56.217Z,11.68
2023-04-16T14:02:23.488Z,11.54
2023-04-16T14:04:49.858Z,11.62
2023-04-16T14:07:16.263Z,11.66
2023-04-16T14:09:42.575Z,11.62
2023-04-16T14:12:08.932Z,11.61
2023-04-16T14:14:35.251Z,11.56
2023-04-16T14:17:03.220Z,11.58
2023-04-16T14:19:30.278Z,11.58
2023-04-16T14:21:56.638Z,11.60
2023-04-16T14:24:23.557Z,11.73
2023-04-16T14:26:49.947Z,11.83
2023-04-16T14:29:16.368Z,11.62
2023-04-16T14:31:43.078Z,11.61
2023-04-16T14:34:09.452Z,11.61
2023-04-16T14:36:36.491Z,11.63
2023-04-16T14:39:03.392Z,11.75
2023-04-16T14:41:30.335Z,11.72
2023-04-16T14:43:56.630Z,11.56
2023-04-16T14:46:23.640Z,11.49
2023-04-16T14:48:50.181Z,11.46
2023-04-16T14:51:16.543Z,11.53
2023-04-16T14:53:42.866Z,11.48
2023-04-16T14:56:10.404Z,11.36
2023-04-16T14:58:39.098Z,11.30
2023-04-16T15:01:05.833Z,11.24
2023-04-16T15:03:33.235Z,11.30
2023-04-16T15:05:59.706Z,11.37
2023-04-16T15:08:26.176Z,11.41
2023-04-16T15:10:53.519Z,11.31
2023-04-16T15:13:19.838Z,11.26
2023-04-16T15:15:46.213Z,11.34
2023-04-16T15:18:12.606Z,11.42
2023-04-16T15:20:38.928Z,11.50
2023-04-16T15:23:05.270Z,11.47
2023-04-16T15:25:31.677Z,11.46
2023-04-16T15:27:58.022Z,11.51
2023-04-16T15:30:24.589Z,11.62
2023-04-16T15:32:51.106Z,11.51
2023-04-16T15:35:17.613Z,11.53
2023-04-16T15:37:43.956Z,11.56
2023-04-16T15:40:10.843Z,11.58
2023-04-16T15:42:37.264Z,11.65
2023-04-16T15:45:03.714Z,11.59
2023-04-16T15:47:30.364Z,11.43
2023-04-16T15:49:56.675Z,11.49
2023-04-16T15:52:23.880Z,11.49
2023-04-16T15:54:50.260Z,11.41
2023-04-16T15:57:16.674Z,11.37
2023-04-16T15:59:50.126Z,11.43
2023-04-16T16:02:26.252Z,11.36
2023-04-16T16:04:53.725Z,11.38
2023-04-16T16:07:20.525Z,11.42
2023-04-16T16:09:48.081Z,11.37
2023-04-16T16:12:15.238Z,11.39
2023-04-16T16:14:43.257Z,11.43
2023-04-16T16:17:09.616Z,11.38
2023-04-16T16:19:36.291Z,11.36
2023-04-16T16:22:03.255Z,11.20
2023-04-16T16:24:29.561Z,11.14
2023-04-16T16:26:56.768Z,11.11
2023-04-16T16:29:25.362Z,11.11
2023-04-16T16:31:52.586Z,11.03
2023-04-16T16:34:21.274Z,11.06
2023-04-16T16:36:49.109Z,10.96
2023-04-16T16:39:15.618Z,10.81
2023-04-16T16:41:42.110Z,10.82
2023-04-16T16:44:08.829Z,10.91
2023-04-16T16:46:35.201Z,10.83
2023-04-16T16:49:01.643Z,10.89
2023-04-16T16:51:30.380Z,10.97
2023-04-16T16:53:56.859Z,10.94
2023-04-16T16:56:23.835Z,10.85
2023-04-16T16:58:50.162Z,10.78
2023-04-16T17:01:16.645Z,10.63
2023-04-16T17:03:43.629Z,10.64
2023-04-16T17:06:10.351Z,10.80
2023-04-16T17:08:36.689Z,10.64
2023-04-16T17:11:03.590Z,10.61
2023-04-16T17:13:32.383Z,10.70
2023-04-16T17:15:58.900Z,10.71
2023-04-16T17:18:25.333Z,10.70
2023-04-16T17:20:52.770Z,10.70
2023-04-16T17:23:25.858Z,10.80
2023-04-16T17:25:52.498Z,10.64
2023-04-16T17:28:18.868Z,10.64
2023-04-16T17:30:46.073Z,10.71
2023-04-16T17:33:12.451Z,10.76
2023-04-16T17:35:39.815Z,10.77
2023-04-16T17:38:06.276Z,10.82
2023-04-16T17:40:32.552Z,10.90
2023-04-16T17:42:59.079Z,10.87
2023-04-16T17:45:25.506Z,10.80
2023-04-16T17:47:52.518Z,10.77
2023-04-16T17:50:18.916Z,10.77
2023-04-16T17:52:47.190Z,10.72
2023-04-16T17:55:13.565Z,10.69
2023-04-16T17:57:39.911Z,10.72
2023-04-16T18:00:09.750Z,10.77
2023-04-16T18:02:36.205Z,10.87
2023-04-16T18:05:02.625Z,10.91
2023-04-16T18:07:28.934Z,10.89
2023-04-16T18:09:55.686Z,10.78
2023-04-16T18:12:23.047Z,10.75
2023-04-16T18:14:49.973Z,10.75
2023-04-16T18:17:17.783Z,10.70
2023-04-16T18:19:44.778Z,10.50
2023-04-16T18:22:13.260Z,10.39
2023-04-16T18:24:39.591Z,10.21
2023-04-16T18:27:07.162Z,10.21
2023-04-16T18:29:34.115Z,10.27
2023-04-16T18:32:03.762Z,10.27
2023-04-16T18:34:31.386Z,10.19
2023-04-16T18:36:57.835Z,10.26
2023-04-16T18:39:24.408Z,10.25
2023-04-16T18:41:50.786Z,10.38
2023-04-16T18:44:17.656Z,10.25
2023-04-16T18:46:44.338Z,10.28
2023-04-16T18:49:10.953Z,10.26
2023-04-16T18:51:37.763Z,10.27
2023-04-16T18:54:04.174Z,10.41
2023-04-16T18:56:31.120Z,10.49
2023-04-16T18:58:57.472Z,10.57
2023-04-16T19:01:23.921Z,10.63
2023-04-16T19:03:50.507Z,10.59
2023-04-16T19:06:16.932Z,10.57
2023-04-16T19:08:43.342Z,10.59
2023-04-16T19:11:09.637Z,10.56
2023-04-16T19:13:36.552Z,10.56
2023-04-16T19:16:04.921Z,10.48
2023-04-16T19:18:31.410Z,10.46
2023-04-16T19:21:00.954Z,10.45
2023-04-16T19:23:27.963Z,10.45
2023-04-16T19:25:56.221Z,10.40
2023-04-16T19:28:23.734Z,10.38
2023-04-16T19:30:50.492Z,10.26
2023-04-16T19:33:16.827Z,10.12
2023-04-16T19:35:43.293Z,10.19
2023-04-16T19:38:10.959Z,10.19
2023-04-16T19:40:37.804Z,10.20
2023-04-16T19:43:04.275Z,10.18
2023-04-16T19:45:30.757Z,10.20
2023-04-16T19:47:57.143Z,10.21
2023-04-16T19:50:23.951Z,10.15
2023-04-16T19:52:50.266Z,10.12
2023-04-16T19:55:16.624Z,10.10
2023-04-16T19:57:42.938Z,10.13
2023-04-16T20:00:11.398Z,10.15
2023-04-16T20:02:37.931Z,10.06
2023-04-16T20:05:04.532Z,10.07
2023-04-16T20:07:30.849Z,10.05
2023-04-16T20:09:57.176Z,10.00
2023-04-16T20:12:23.615Z,10.01
2023-04-16T20:14:50.215Z,10.02
2023-04-16T20:17:20.052Z,9.89
2023-04-16T20:19:49.601Z,9.98
2023-04-16T20:22:18.169Z,10.05
2023-04-16T20:24:47.796Z,10.05
2023-04-16T20:27:15.066Z,9.92
2023-04-16T20:29:41.777Z,10.05
2023-04-16T20:32:08.487Z,10.12
2023-04-16T20:34:34.959Z,10.15
2023-04-16T20:37:01.294Z,10.12
2023-04-16T20:39:27.672Z,10.14
2023-04-16T20:41:57.060Z,10.00
2023-04-16T20:44:26.300Z,10.06
2023-04-16T20:46:55.966Z,9.92
2023-04-16T20:49:22.675Z,9.86
2023-04-16T20:51:49.175Z,9.95
2023-04-16T20:54:16.462Z,9.95
2023-04-16T20:56:43.297Z,10.02
2023-04-16T20:59:10.262Z,10.02
2023-04-16T21:01:37.036Z,10.00
2023-04-16T21:04:03.648Z,9.98
2023-04-16T21:06:32.882Z,9.97
2023-04-16T21:09:06.005Z,10.00
2023-04-16T21:11:34.326Z,10.02
2023-04-16T21:14:01.145Z,10.02
2023-04-16T21:16:27.539Z,9.99
2023-04-16T21:18:54.086Z,10.08
2023-04-16T21:21:20.471Z,10.22
2023-04-16T21:23:47.158Z,10.11
2023-04-16T21:26:13.497Z,10.11
2023-04-16T21:28:39.805Z,10.19
2023-04-16T21:31:06.768Z,10.14
2023-04-16T21:33:33.163Z,10.12
2023-04-16T21:35:59.475Z,10.12
2023-04-16T21:38:25.966Z,9.98
2023-04-16T21:40:55.726Z,9.95
2023-04-16T21:43:25.300Z,9.98
2023-04-16T21:45:54.809Z,9.99
2023-04-16T21:48:22.830Z,10.05
2023-04-16T21:51:06.420Z,10.08
2023-04-16T21:53:33.474Z,10.03
2023-04-16T21:56:00.277Z,10.06
2023-04-16T21:58:26.749Z,10.07
2023-04-16T22:00:54.121Z,10.12
2023-04-16T22:03:26.224Z,10.19
2023-04-16T22:06:02.378Z,10.23
2023-04-16T22:08:29.013Z,10.23
2023-04-16T22:10:59.276Z,10.15
2023-04-16T22:13:26.337Z,10.17
2023-04-16T22:15:56.035Z,10.20
2023-04-16T22:18:25.313Z,10.11
2023-04-16T22:20:54.708Z,10.20
2023-04-16T22:23:21.973Z,10.14
2023-04-16T22:25:50.467Z,9.88
2023-04-16T22:28:17.581Z,9.89
2023-04-16T22:30:43.965Z,9.94
2023-04-16T22:33:10.412Z,9.98
2023-04-16T22:35:36.778Z,9.99
2023-04-16T22:38:03.183Z,9.99
2023-04-16T22:40:32.619Z,10.05
2023-04-16T22:42:59.085Z,10.04
2023-04-16T22:45:26.062Z,10.11
2023-04-16T22:47:52.582Z,9.99
2023-04-16T22:50:19.419Z,9.99
2023-04-16T22:52:45.818Z,9.98
2023-04-16T22:55:12.111Z,9.99
2023-04-16T22:57:38.544Z,10.06
2023-04-16T23:00:12.660Z,10.11
2023-04-16T23:02:39.133Z,10.14
2023-04-16T23:05:05.741Z,10.14
2023-04-16T23:07:32.159Z,10.09
2023-04-16T23:09:58.538Z,10.06
2023-04-16T23:12:24.887Z,10.02
2023-04-16T23:14:52.700Z,10.06
2023-04-16T23:17:20.619Z,9.86
2023-04-16T23:19:46.945Z,9.77
2023-04-16T23:22:13.212Z,9.78
2023-04-16T23:24:39.571Z,9.76
2023-04-16T23:27:06.003Z,9.81
2023-04-16T23:29:32.296Z,9.86
2023-04-16T23:31:58.692Z,9.90
2023-04-16T23:34:25.470Z,9.88
2023-04-16T23:36:54.150Z,9.81
2023-04-16T23:39:20.643Z,9.85
2023-04-16T23:41:47.031Z,9.87
2023-04-16T23:44:13.384Z,9.96
2023-04-16T23:46:40.908Z,10.02
2023-04-16T23:49:07.573Z,9.98
2023-04-16T23:51:33.956Z,10.02
2023-04-16T23:54:00.384Z,9.96
2023-04-16T23:56:27.406Z,9.95
2023-04-16T23:58:53.795Z,9.98
